createdAt,value
2022-07-28T00:00:26.313Z,27.20
2022-07-28T00:05:29.715Z,27.80
2022-07-28T00:10:34.577Z,27.20
2022-07-28T00:15:39.528Z,27.10
2022-07-28T00:20:42.813Z,27.50
2022-07-28T00:25:46.139Z,27.00
2022-07-28T00:30:50.737Z,27.30
2022-07-28T00:35:54.234Z,28.00
2022-07-28T00:41:12.928Z,27.60
2022-07-28T00:46:19.436Z,27.90
2022-07-28T00:51:27.756Z,28.50
2022-07-28T00:56:31.170Z,28.80
2022-07-28T01:01:35.962Z,27.90
2022-07-28T01:06:53.577Z,28.70
2022-07-28T01:12:02.968Z,29.10
2022-07-28T01:17:12.516Z,29.00
2022-07-28T01:22:23.928Z,29.20
2022-07-28T01:27:46.873Z,29.40
2022-07-28T01:32:57.385Z,29.30
2022-07-28T01:38:04.795Z,29.50
2022-07-28T01:43:13.481Z,29.30
2022-07-28T01:48:21.099Z,29.20
2022-07-28T01:53:25.816Z,29.40
2022-07-28T01:58:31.781Z,29.00
2022-07-28T02:03:37.233Z,29.40
2022-07-28T02:08:42.108Z,29.40
2022-07-28T02:13:46.560Z,29.20
2022-07-28T02:18:52.995Z,29.50
2022-07-28T02:23:57.350Z,29.70
2022-07-28T02:29:04.347Z,29.40
2022-07-28T02:34:11.959Z,29.80
2022-07-28T02:39:21.691Z,29.80
2022-07-28T02:44:37.066Z,29.90
2022-07-28T02:49:44.481Z,30.30
2022-07-28T02:54:48.601Z,30.20
2022-07-28T02:59:53.192Z,29.60
2022-07-28T03:04:59.023Z,29.90
2022-07-28T03:10:03.501Z,30.20
2022-07-28T03:15:07.537Z,29.70
2022-07-28T03:20:13.529Z,29.80
2022-07-28T03:25:20.818Z,30.30
2022-07-28T03:30:28.313Z,30.20
2022-07-28T03:35:36.064Z,30.40
2022-07-28T03:40:39.958Z,30.70
2022-07-28T03:45:46.517Z,30.20
2022-07-28T03:50:51.813Z,30.10
2022-07-28T03:55:55.350Z,30.50
2022-07-28T04:00:59.620Z,30.30
2022-07-28T04:06:04.340Z,30.80
2022-07-28T04:11:07.552Z,31.00
2022-07-28T04:16:10.753Z,30.80
2022-07-28T04:21:15.379Z,30.80
2022-07-28T04:26:18.924Z,31.20
2022-07-28T04:31:22.164Z,30.90
2022-07-28T04:36:27.141Z,31.00
2022-07-28T04:41:30.373Z,31.60
2022-07-28T04:46:34.861Z,31.30
2022-07-28T04:51:39.410Z,31.30
2022-07-28T04:56:42.694Z,31.80
2022-07-28T05:01:46.167Z,31.70
2022-07-28T05:06:51.002Z,31.80
2022-07-28T05:11:54.265Z,32.60
2022-07-28T05:16:57.593Z,32.30
2022-07-28T05:22:02.769Z,32.70
2022-07-28T05:27:05.995Z,33.40
2022-07-28T05:32:16.575Z,33.00
2022-07-28T05:37:22.273Z,33.20
2022-07-28T05:42:26.582Z,33.90
2022-07-28T05:47:29.701Z,33.20
2022-07-28T05:52:34.213Z,33.30
2022-07-28T05:57:38.488Z,33.70
2022-07-28T06:02:41.949Z,33.50
2022-07-28T06:07:47.556Z,33.50
2022-07-28T06:12:52.599Z,34.10
2022-07-28T06:17:56.704Z,33.70
2022-07-28T06:23:01.304Z,33.80
2022-07-28T06:28:04.478Z,34.00
2022-07-28T06:33:07.828Z,33.40
2022-07-28T06:38:12.568Z,33.40
2022-07-28T06:43:15.766Z,34.50
2022-07-28T06:48:20.188Z,33.40
2022-07-28T06:53:24.740Z,33.60
2022-07-28T06:58:29.225Z,33.90
2022-07-28T07:03:32.349Z,33.50
2022-07-28T07:08:36.914Z,33.50
2022-07-28T07:13:40.054Z,33.50
2022-07-28T07:18:43.358Z,33.30
2022-07-28T07:23:47.880Z,33.20
2022-07-28T07:28:51.205Z,33.90
2022-07-28T07:33:54.353Z,33.00
2022-07-28T07:38:59.213Z,33.00
2022-07-28T07:44:02.408Z,33.00
2022-07-28T07:49:05.654Z,32.70
2022-07-28T07:54:10.292Z,32.70
2022-07-28T07:59:13.452Z,32.50
2022-07-28T08:04:16.976Z,32.40
2022-07-28T08:09:21.712Z,32.10
2022-07-28T08:14:25.217Z,31.80
2022-07-28T08:19:28.510Z,31.80
2022-07-28T08:24:34.377Z,31.60
2022-07-28T08:29:37.736Z,31.10
2022-07-28T08:34:40.954Z,31.20
2022-07-28T08:39:45.529Z,30.90
2022-07-28T08:44:53.711Z,30.40
2022-07-28T08:49:59.539Z,30.00
2022-07-28T08:55:06.631Z,30.00
2022-07-28T09:00:11.909Z,29.50
2022-07-28T09:05:15.714Z,29.60
2022-07-28T09:10:20.902Z,29.70
2022-07-28T09:15:24.093Z,29.30
2022-07-28T09:20:29.365Z,29.30
2022-07-28T09:25:35.257Z,28.80
2022-07-28T09:30:52.432Z,28.30
2022-07-28T09:36:00.071Z,28.50
2022-07-28T09:41:07.506Z,28.20
2022-07-28T09:46:12.985Z,28.00
2022-07-28T09:51:17.537Z,27.90
2022-07-28T09:56:23.481Z,27.70
2022-07-28T10:01:31.199Z,27.10
2022-07-28T10:06:40.742Z,27.20
2022-07-28T10:11:45.437Z,27.00
2022-07-28T10:16:52.790Z,26.10
2022-07-28T10:21:57.670Z,26.30
2022-07-28T10:27:05.264Z,26.20
2022-07-28T10:32:08.680Z,25.60
2022-07-28T10:37:19.773Z,25.60
2022-07-28T10:42:25.898Z,24.90
2022-07-28T10:47:35.941Z,24.70
2022-07-28T10:52:52.558Z,24.80
2022-07-28T10:58:11.251Z,24.10
2022-07-28T11:03:37.652Z,23.80
2022-07-28T11:08:41.030Z,23.60
2022-07-28T11:13:45.654Z,24.10
2022-07-28T11:19:36.529Z,23.20
2022-07-28T11:25:18.598Z,23.40
2022-07-28T11:30:53.964Z,23.60
2022-07-28T11:35:59.115Z,23.00
2022-07-28T11:41:02.251Z,22.90
2022-07-28T11:46:34.587Z,22.70
2022-07-28T11:51:52.498Z,22.30
2022-07-28T11:56:59.557Z,22.00
2022-07-28T12:02:04.158Z,21.40
2022-07-28T12:07:08.704Z,21.70
2022-07-28T12:12:12.631Z,21.70
2022-07-28T12:17:17.612Z,21.70
2022-07-28T12:22:21.251Z,21.70
2022-07-28T12:27:29.714Z,21.20
2022-07-28T12:32:37.941Z,21.10
2022-07-28T12:37:43.068Z,19.90
2022-07-28T12:42:46.856Z,20.40
2022-07-28T12:47:56.781Z,20.30
2022-07-28T12:53:04.504Z,19.60
2022-07-28T12:58:08.698Z,19.10
2022-07-28T13:03:25.087Z,19.70
2022-07-28T13:08:29.525Z,19.10
2022-07-28T13:13:45.453Z,20.00
2022-07-28T13:18:53.420Z,19.50
2022-07-28T13:23:57.482Z,18.90
2022-07-28T13:29:04.079Z,19.60
2022-07-28T13:34:17.931Z,18.70
2022-07-28T13:39:21.453Z,18.90
2022-07-28T13:44:24.617Z,19.10
2022-07-28T13:49:29.719Z,19.10
2022-07-28T13:54:33.271Z,18.80
2022-07-28T13:59:45.106Z,19.10
2022-07-28T14:04:50.670Z,18.90
2022-07-28T14:09:53.967Z,18.70
2022-07-28T14:14:57.342Z,18.70
2022-07-28T14:20:01.926Z,18.60
2022-07-28T14:25:05.478Z,18.10
2022-07-28T14:30:09.916Z,18.50
2022-07-28T14:35:14.569Z,18.20
2022-07-28T14:40:18.328Z,17.80
2022-07-28T14:45:21.650Z,18.20
2022-07-28T14:50:26.428Z,18.20
2022-07-28T14:55:30.497Z,17.80
2022-07-28T15:00:33.757Z,17.90
2022-07-28T15:05:38.338Z,17.90
2022-07-28T15:10:41.679Z,17.60
2022-07-28T15:15:45.051Z,17.90
2022-07-28T15:20:50.398Z,17.80
2022-07-28T15:25:53.551Z,17.60
2022-07-28T15:30:56.958Z,17.70
2022-07-28T15:36:02.122Z,17.40
2022-07-28T15:41:05.509Z,17.20
2022-07-28T15:46:11.225Z,17.30
2022-07-28T15:51:15.870Z,17.20
2022-07-28T15:56:19.035Z,17.20
2022-07-28T16:01:22.528Z,17.30
2022-07-28T16:06:47.487Z,17.20
2022-07-28T16:11:50.913Z,16.80
2022-07-28T16:16:54.063Z,17.00
2022-07-28T16:21:58.650Z,16.60
2022-07-28T16:27:01.797Z,16.50
2022-07-28T16:32:05.460Z,16.20
2022-07-28T16:37:10.022Z,16.40
2022-07-28T16:42:13.246Z,16.00
2022-07-28T16:47:16.721Z,16.50
2022-07-28T16:52:21.278Z,16.20
2022-07-28T16:57:24.651Z,15.80
2022-07-28T17:02:27.837Z,16.10
2022-07-28T17:07:32.453Z,16.10
2022-07-28T17:12:35.577Z,15.60
2022-07-28T17:17:38.838Z,16.00
2022-07-28T17:22:44.934Z,16.00
2022-07-28T17:27:48.394Z,15.70
2022-07-28T17:32:51.593Z,15.90
2022-07-28T17:37:56.965Z,15.90
2022-07-28T17:43:00.120Z,15.80
2022-07-28T17:48:03.267Z,16.00
2022-07-28T17:53:07.896Z,16.00
2022-07-28T17:58:13.602Z,15.80
2022-07-28T18:03:17.249Z,15.90
2022-07-28T18:08:22.077Z,15.90
2022-07-28T18:13:25.694Z,15.90
2022-07-28T18:18:29.002Z,16.00
2022-07-28T18:23:33.550Z,16.00
2022-07-28T18:28:36.762Z,16.10
2022-07-28T18:33:40.462Z,16.20
2022-07-28T18:38:45.072Z,16.50
2022-07-28T18:43:48.245Z,16.80
2022-07-28T18:48:56.662Z,16.80
2022-07-28T18:54:02.254Z,16.90
2022-07-28T18:59:05.616Z,17.10
2022-07-28T19:04:08.937Z,17.10
2022-07-28T19:09:13.485Z,17.40
2022-07-28T19:14:17.710Z,17.50
2022-07-28T19:19:21.427Z,17.70
2022-07-28T19:24:26.165Z,17.80
2022-07-28T19:29:29.458Z,18.20
2022-07-28T19:34:32.604Z,18.40
2022-07-28T19:39:38.241Z,18.50
2022-07-28T19:44:51.997Z,19.10
2022-07-28T19:49:57.494Z,18.90
2022-07-28T19:55:02.112Z,19.00
2022-07-28T20:00:09.147Z,19.30
2022-07-28T20:05:12.350Z,19.30
2022-07-28T20:10:16.930Z,19.40
2022-07-28T20:15:20.164Z,19.70
2022-07-28T20:20:23.633Z,19.60
2022-07-28T20:25:28.230Z,20.00
2022-07-28T20:30:33.311Z,20.30
2022-07-28T20:35:36.714Z,20.40
2022-07-28T20:40:41.447Z,20.40
2022-07-28T20:45:46.131Z,20.30
2022-07-28T20:50:49.493Z,20.30
2022-07-28T20:55:54.357Z,20.20
2022-07-28T21:00:57.896Z,21.10
2022-07-28T21:06:01.223Z,20.30
2022-07-28T21:11:07.716Z,20.40
2022-07-28T21:16:10.954Z,20.80
2022-07-28T21:21:15.636Z,20.70
2022-07-28T21:26:20.297Z,21.00
2022-07-28T21:31:23.830Z,21.20
2022-07-28T21:36:27.110Z,21.30
2022-07-28T21:41:36.474Z,21.40
2022-07-28T21:46:42.440Z,21.90
2022-07-28T21:51:47.524Z,21.80
2022-07-28T21:56:52.266Z,22.30
2022-07-28T22:01:55.604Z,22.20
2022-07-28T22:06:58.823Z,22.10
2022-07-28T22:12:03.515Z,22.30
2022-07-28T22:17:06.810Z,22.60
2022-07-28T22:22:12.536Z,23.10
2022-07-28T22:27:17.288Z,22.50
2022-07-28T22:32:28.777Z,23.00
2022-07-28T22:37:32.337Z,23.00
2022-07-28T22:42:37.121Z,23.10
2022-07-28T22:47:40.606Z,23.80
2022-07-28T22:52:43.851Z,23.80
2022-07-28T22:57:48.443Z,23.90
2022-07-28T23:02:51.735Z,24.40
2022-07-28T23:07:57.357Z,24.20
2022-07-28T23:13:03.462Z,24.60
2022-07-28T23:18:06.866Z,25.00
2022-07-28T23:23:10.497Z,25.00
2022-07-28T23:28:15.554Z,25.30
2022-07-28T23:33:55.350Z,26.00
2022-07-28T23:38:42.134Z,25.60
2022-07-28T23:43:46.897Z,25.70
2022-07-28T23:48:50.295Z,26.20
2022-07-28T23:53:56.482Z,25.80
2022-07-28T23:59:01.991Z,26.20
